Time;durP1;ratioP1;P1;durP2;ratioP2;P2;SDS_P1;SDS_P2;PMS_P1;PMS_P2;Temp;Humidity;BMP_temperature;BMP_pressure;BME280_temperature;BME280_humidity;BME280_pressure;Samples;Min_cycle;Max_cycle;Signal;HPM_P1;HPM_P2
2021/10/01 00:01:38;;;;;;;12.60;6.70;;;;;;;13.80;65.22;101493.88;5032288;28;20491;-70
2021/10/01 00:04:04;;;;;;;12.05;7.18;;;;;;;13.69;65.58;101490.84;5031825;28;20037;-68
2021/10/01 00:06:29;;;;;;;10.63;6.75;;;;;;;13.82;65.19;101482.75;5031905;28;20022;-69
2021/10/01 00:08:55;;;;;;;9.65;7.18;;;;;;;13.75;65.50;101481.59;5032214;28;20035;-70
2021/10/01 00:11:20;;;;;;;10.07;7.13;;;;;;;13.80;65.13;101481.78;5031910;28;20033;-67
2021/10/01 00:13:46;;;;;;;10.90;6.70;;;;;;;13.56;65.10;101450.56;5031931;28;20030;-71
2021/10/01 00:16:11;;;;;;;12.18;7.10;;;;;;;13.54;65.11;101455.66;4996000;28;20079;-70
2021/10/01 00:18:37;;;;;;;11.55;6.95;;;;;;;13.82;64.78;101479.25;5013114;28;20037;-68
2021/10/01 00:21:04;;;;;;;10.23;6.90;;;;;;;13.74;64.11;101473.75;5031425;28;20107;-69
2021/10/01 00:23:29;;;;;;;9.90;7.03;;;;;;;13.72;64.23;101475.38;5031762;28;20109;-74
2021/10/01 00:25:55;;;;;;;10.95;6.53;;;;;;;13.75;64.15;101485.91;5013810;28;20120;-71
2021/10/01 00:28:20;;;;;;;11.57;6.80;;;;;;;13.71;63.98;101484.91;5031738;28;20033;-68
2021/10/01 00:30:46;;;;;;;11.73;6.80;;;;;;;13.74;63.89;101490.22;5031203;28;20419;-70
2021/10/01 00:33:11;;;;;;;10.38;6.60;;;;;;;13.70;63.71;101492.63;5031691;28;20080;-73
2021/10/01 00:35:37;;;;;;;13.13;7.43;;;;;;;13.52;64.45;101491.06;5030996;28;20040;-68
2021/10/01 00:38:02;;;;;;;8.55;6.13;;;;;;;13.50;64.39;101484.03;5031691;28;20021;-71
2021/10/01 00:40:28;;;;;;;13.82;6.43;;;;;;;13.47;63.71;101483.88;5031458;28;20458;-71
2021/10/01 00:42:54;;;;;;;12.02;6.85;;;;;;;13.19;64.58;101482.72;5031343;28;20034;-72
2021/10/01 00:45:20;;;;;;;10.80;6.63;;;;;;;13.02;65.17;101487.16;5031562;28;20029;-69
2021/10/01 00:47:47;;;;;;;13.63;6.70;;;;;;;12.62;65.63;101443.16;5031005;28;20017;-72
2021/10/01 00:50:13;;;;;;;11.13;7.03;;;;;;;12.59;65.68;101483.56;5030938;28;20043;-70
2021/10/01 00:52:39;;;;;;;10.40;6.30;;;;;;;12.66;65.56;101483.03;5031268;28;20029;-69
2021/10/01 00:55:06;;;;;;;9.18;6.60;;;;;;;12.61;65.07;101493.19;5031471;28;20065;-69
2021/10/01 00:57:32;;;;;;;10.57;6.30;;;;;;;12.51;65.07;101477.16;5030866;28;20038;-67
2021/10/01 00:59:57;;;;;;;9.43;6.53;;;;;;;12.38;65.31;101462.75;5031015;28;20048;-68
2021/10/01 01:02:23;;;;;;;12.13;6.55;;;;;;;12.52;65.26;101491.88;5030999;28;20495;-67
2021/10/01 01:04:49;;;;;;;13.40;6.32;;;;;;;12.49;65.31;101486.56;5030005;28;20021;-71
2021/10/01 01:07:27;;;;;;;8.65;6.40;;;;;;;12.40;65.85;101495.69;5031151;28;20028;-72
2021/10/01 01:10:18;;;;;;;15.00;7.57;;;;;;;12.40;66.18;101493.09;5030686;28;20033;-67
2021/10/01 01:13:05;;;;;;;8.70;6.80;;;;;;;12.39;65.63;101498.22;5028201;28;20435;-70
2021/10/01 01:15:33;;;;;;;15.40;7.18;;;;;;;12.50;65.60;101493.50;5011222;28;20026;-70
2021/10/01 01:18:10;;;;;;;11.05;6.55;;;;;;;12.27;65.64;101475.22;5016202;28;20025;-70
2021/10/01 01:20:42;;;;;;;12.50;6.97;;;;;;;12.22;66.09;101480.16;5008507;28;20091;-70
2021/10/01 01:23:32;;;;;;;8.85;6.60;;;;;;;12.12;66.52;101490.91;5013185;28;20030;-69
2021/10/01 01:26:36;;;;;;;11.77;7.15;;;;;;;12.07;66.53;101482.06;5013855;28;20037;-71
2021/10/01 01:29:10;;;;;;;13.30;7.10;;;;;;;11.95;67.14;101488.38;4957765;28;20110;-69
2021/10/01 01:31:46;;;;;;;11.27;7.15;;;;;;;11.81;67.67;101495.50;4962653;28;20051;-70
2021/10/01 01:34:32;;;;;;;12.48;7.30;;;;;;;11.91;67.23;101495.94;4955169;28;20039;-71
2021/10/01 01:37:05;;;;;;;11.43;6.88;;;;;;;11.95;67.11;101482.31;4951669;28;20109;-70
2021/10/01 01:39:32;;;;;;;9.25;7.03;;;;;;;11.95;67.32;101495.25;4932663;28;20055;-67
2021/10/01 01:41:59;;;;;;;9.63;7.00;;;;;;;11.97;67.29;101511.78;4942214;28;20559;-68
2021/10/01 01:44:26;;;;;;;10.75;7.00;;;;;;;11.99;67.02;101502.41;4957026;28;20034;-73
2021/10/01 01:46:52;;;;;;;9.93;6.85;;;;;;;12.01;66.67;101503.34;4952025;28;20529;-67
2021/10/01 01:49:20;;;;;;;10.90;6.90;;;;;;;11.97;66.65;101491.97;4951695;28;20031;-70
2021/10/01 01:51:47;;;;;;;10.38;7.43;;;;;;;12.01;66.64;101481.75;4952632;28;20417;-71
2021/10/01 01:54:13;;;;;;;9.50;6.18;;;;;;;11.93;66.37;101473.59;4951547;28;20134;-71
2021/10/01 01:56:43;;;;;;;13.85;6.82;;;;;;;11.86;66.52;101484.47;4960648;28;20023;-69
2021/10/01 01:59:10;;;;;;;11.73;6.60;;;;;;;11.73;66.63;101467.47;4954211;28;20051;-69
2021/10/01 02:01:36;;;;;;;17.40;6.82;;;;;;;11.75;66.43;101464.16;4950429;29;20122;-69
2021/10/01 02:04:03;;;;;;;12.23;7.38;;;;;;;11.89;66.76;101495.00;4950949;29;20117;-70
2021/10/01 02:06:31;;;;;;;13.18;7.20;;;;;;;11.82;66.88;101494.69;5007355;28;20074;-67
2021/10/01 02:08:59;;;;;;;9.65;6.75;;;;;;;11.76;67.15;101486.63;5010888;28;20411;-73
2021/10/01 02:11:25;;;;;;;10.88;6.72;;;;;;;11.77;66.87;101488.38;5010607;28;20040;-68
2021/10/01 02:13:53;;;;;;;11.65;7.38;;;;;;;11.53;66.68;101443.25;5023997;28;20191;-69
2021/10/01 02:16:20;;;;;;;12.85;7.15;;;;;;;11.53;66.66;101435.47;5029898;28;20458;-69
2021/10/01 02:18:49;;;;;;;13.05;6.35;;;;;;;11.71;66.72;101482.91;5034597;28;20076;-68
2021/10/01 02:21:17;;;;;;;13.30;7.55;;;;;;;11.69;66.71;101489.72;5016240;28;20025;-68
2021/10/01 02:23:43;;;;;;;11.23;6.93;;;;;;;11.79;66.62;101499.69;5034249;28;20037;-68
2021/10/01 02:26:33;;;;;;;9.65;6.78;;;;;;;11.69;66.54;101494.00;5034001;28;20037;-69
2021/10/01 02:29:18;;;;;;;13.27;7.03;;;;;;;11.63;66.66;101494.59;5034281;28;20040;-69
2021/10/01 02:32:00;;;;;;;12.02;7.82;;;;;;;11.56;66.87;101495.09;5034436;28;20049;-68
2021/10/01 02:34:34;;;;;;;11.07;7.53;;;;;;;11.54;67.02;101509.66;5034024;28;20439;-69
2021/10/01 02:37:00;;;;;;;12.20;6.80;;;;;;;11.48;67.07;101487.84;5034107;28;20112;-68
2021/10/01 02:39:26;;;;;;;14.32;7.63;;;;;;;11.69;66.56;101494.91;5033897;28;20373;-68
2021/10/01 02:41:51;;;;;;;11.82;7.47;;;;;;;11.77;65.98;101492.69;5033746;28;20041;-72
2021/10/01 02:44:17;;;;;;;12.77;7.45;;;;;;;11.53;65.83;101448.41;5033822;28;20029;-69
2021/10/01 02:46:42;;;;;;;11.63;7.03;;;;;;;11.88;65.61;101498.38;5033839;28;20033;-71
2021/10/01 02:49:08;;;;;;;12.25;7.22;;;;;;;11.90;65.28;101495.06;5033800;28;20033;-69
2021/10/01 02:51:42;;;;;;;13.98;7.03;;;;;;;11.81;65.44;101486.84;5033973;28;20453;-74
2021/10/01 02:54:13;;;;;;;12.50;6.97;;;;;;;11.61;65.91;101494.53;5033734;28;20034;-68
2021/10/01 02:57:07;;;;;;;13.65;6.93;;;;;;;11.68;65.31;101498.28;5033721;28;20036;-69
2021/10/01 02:59:39;;;;;;;11.20;6.38;;;;;;;11.20;65.48;101420.06;4991937;28;20121;-69
2021/10/01 03:02:05;;;;;;;10.00;6.80;;;;;;;11.55;64.94;101458.03;4943873;28;20142;-72
2021/10/01 03:04:31;;;;;;;14.75;6.97;;;;;;;11.91;64.17;101490.75;4991830;28;20043;-67
2021/10/01 03:06:59;;;;;;;10.93;7.03;;;;;;;12.01;63.85;101481.75;4992122;28;20041;-67
2021/10/01 03:09:28;;;;;;;13.63;7.28;;;;;;;12.18;63.58;101495.50;4991921;28;20563;-69
2021/10/01 03:11:56;;;;;;;13.07;6.80;;;;;;;12.26;62.96;101499.31;4991563;28;20037;-69
2021/10/01 03:14:23;;;;;;;10.90;6.75;;;;;;;12.17;63.59;101501.50;4991958;28;20063;-69
2021/10/01 03:16:50;;;;;;;11.05;6.70;;;;;;;12.09;63.26;101486.47;4991670;28;20041;-68
2021/10/01 03:19:17;;;;;;;12.40;7.28;;;;;;;11.63;64.46;101508.41;4991520;28;20038;-69
2021/10/01 03:21:43;;;;;;;10.13;6.57;;;;;;;11.37;65.08;101486.44;4986476;28;20035;-68
2021/10/01 03:24:09;;;;;;;10.32;7.45;;;;;;;11.62;64.94;101498.00;4972309;28;20035;-68
2021/10/01 03:26:35;;;;;;;13.65;8.05;;;;;;;11.62;64.43;101474.72;4971885;28;20093;-73
2021/10/01 03:29:02;;;;;;;14.18;7.20;;;;;;;11.67;64.83;101503.41;4986772;28;20121;-69
2021/10/01 03:31:28;;;;;;;10.68;7.10;;;;;;;11.80;64.42;101498.91;5030643;28;20052;-69
2021/10/01 03:33:55;;;;;;;15.63;6.82;;;;;;;11.95;64.14;101509.09;5033108;28;20427;-69
2021/10/01 03:36:22;;;;;;;20.20;7.95;;;;;;;11.94;63.47;101468.50;5032756;28;20025;-69
2021/10/01 03:38:48;;;;;;;19.70;7.30;;;;;;;12.12;62.35;101484.06;5032506;28;20052;-68
2021/10/01 03:41:15;;;;;;;16.38;7.72;;;;;;;12.43;61.93;101513.06;5032545;28;20069;-74
2021/10/01 03:43:41;;;;;;;22.27;8.52;;;;;;;12.30;61.85;101514.22;5033069;28;20030;-71
2021/10/01 03:46:06;;;;;;;24.33;8.27;;;;;;;12.39;62.10;101517.22;5032889;28;20029;-69
2021/10/01 03:48:32;;;;;;;29.42;8.10;;;;;;;12.32;61.61;101503.91;5032836;28;20415;-69
2021/10/01 03:50:57;;;;;;;17.88;8.35;;;;;;;12.46;61.05;101527.03;5026664;28;20096;-69
2021/10/01 03:53:23;;;;;;;13.85;6.95;;;;;;;12.28;60.55;101496.00;5020962;28;20036;-67
2021/10/01 03:55:48;;;;;;;16.23;7.03;;;;;;;12.41;59.69;101523.34;5030809;28;20043;-68
2021/10/01 03:58:14;;;;;;;11.10;7.35;;;;;;;12.25;60.16;101538.97;5026492;28;20025;-69
2021/10/01 04:00:39;;;;;;;14.02;6.80;;;;;;;12.23;60.54;101538.03;5022647;28;20117;-69
2021/10/01 04:03:05;;;;;;;14.55;7.25;;;;;;;12.27;60.22;101529.59;5032232;28;20033;-71
2021/10/01 04:05:30;;;;;;;23.00;7.70;;;;;;;12.24;60.31;101511.34;5019900;28;20029;-71
2021/10/01 04:07:56;;;;;;;10.98;7.15;;;;;;;12.04;60.70;101482.78;5022580;28;20025;-73
2021/10/01 04:10:22;;;;;;;11.82;7.05;;;;;;;12.32;60.18;101517.72;5032197;28;20068;-70
2021/10/01 04:12:47;;;;;;;15.40;7.68;;;;;;;12.26;60.26;101510.59;5032040;28;20025;-71
2021/10/01 04:15:13;;;;;;;15.27;7.68;;;;;;;12.17;60.73;101511.84;5014510;28;20105;-72
2021/10/01 04:17:38;;;;;;;13.85;7.30;;;;;;;11.92;61.23;101502.88;5012445;28;20026;-71
2021/10/01 04:20:05;;;;;;;14.07;7.55;;;;;;;11.60;62.51;101513.44;5012153;28;20026;-70
2021/10/01 04:22:31;;;;;;;21.45;7.20;;;;;;;11.60;62.90;101523.78;5012261;28;20034;-71
2021/10/01 04:24:56;;;;;;;21.88;7.95;;;;;;;11.65;62.84;101530.06;5011973;28;20432;-70
2021/10/01 04:27:22;;;;;;;33.38;8.77;;;;;;;11.70;62.98;101538.06;5010655;28;20040;-70
2021/10/01 04:29:47;;;;;;;17.90;8.18;;;;;;;11.45;63.46;101510.97;5015196;28;20032;-70
2021/10/01 04:32:13;;;;;;;13.75;8.73;;;;;;;11.45;63.96;101534.25;5012025;28;20046;-70
2021/10/01 04:34:59;;;;;;;22.23;8.95;;;;;;;11.40;64.30;101548.66;5012117;28;20033;-69
2021/10/01 04:37:25;;;;;;;77.68;27.75;;;;;;;11.20;65.35;101537.25;5011896;28;20041;-70
2021/10/01 04:39:52;;;;;;;79.22;33.20;;;;;;;10.80;65.97;101497.34;5011113;28;20038;-70
2021/10/01 04:42:18;;;;;;;38.15;15.57;;;;;;;11.04;66.54;101548.53;5011887;28;20476;-70
2021/10/01 04:44:44;;;;;;;29.33;11.18;;;;;;;11.11;66.20;101542.84;5012414;28;20037;-73
2021/10/01 04:47:09;;;;;;;26.38;10.32;;;;;;;11.02;65.16;101508.78;5012003;28;20080;-69
2021/10/01 04:49:35;;;;;;;31.77;10.15;;;;;;;11.39;63.70;101546.88;5011880;28;20029;-69
2021/10/01 04:52:00;;;;;;;21.65;10.07;;;;;;;11.53;63.34;101552.72;5011857;28;20034;-70
2021/10/01 04:54:25;;;;;;;20.15;9.10;;;;;;;11.65;63.24;101545.59;5011702;28;20030;-70
2021/10/01 04:56:52;;;;;;;16.63;9.40;;;;;;;11.70;63.71;101551.00;5011609;28;20516;-70
2021/10/01 04:59:17;;;;;;;17.58;8.70;;;;;;;11.56;63.32;101555.47;5011797;28;20033;-70
2021/10/01 05:01:43;;;;;;;18.83;9.13;;;;;;;11.22;63.57;101558.91;5025941;28;20515;-70
2021/10/01 05:04:09;;;;;;;16.58;8.00;;;;;;;10.74;65.23;101566.75;5011716;28;20049;-70
2021/10/01 05:06:34;;;;;;;24.55;9.13;;;;;;;10.52;66.04;101562.13;5011987;28;20036;-70
2021/10/01 05:08:59;;;;;;;19.45;8.48;;;;;;;10.77;66.02;101573.78;5011958;28;20416;-69
2021/10/01 05:11:25;;;;;;;21.67;8.98;;;;;;;10.96;65.88;101583.41;5011612;28;20033;-70
2021/10/01 05:13:50;;;;;;;20.88;8.25;;;;;;;10.88;65.97;101564.91;5011864;28;20026;-70
2021/10/01 05:16:16;;;;;;;20.35;9.73;;;;;;;11.00;65.93;101567.25;5011739;28;20036;-70
2021/10/01 05:18:41;;;;;;;24.80;8.85;;;;;;;11.09;65.36;101567.75;5011294;28;20022;-70
2021/10/01 05:21:07;;;;;;;23.10;8.05;;;;;;;11.21;65.16;101564.88;5011462;28;20047;-70
2021/10/01 05:23:32;;;;;;;18.60;7.93;;;;;;;11.36;64.51;101566.50;5011435;28;20117;-70
2021/10/01 05:25:59;;;;;;;26.38;12.18;;;;;;;11.26;65.12;101568.59;5011559;28;20026;-70
2021/10/01 05:28:24;;;;;;;31.48;11.52;;;;;;;11.25;66.00;101581.44;5011264;28;20038;-70
2021/10/01 05:30:50;;;;;;;28.30;10.65;;;;;;;11.24;65.88;101572.81;5011440;28;20061;-70
2021/10/01 05:33:16;;;;;;;27.73;10.38;;;;;;;11.38;66.07;101590.75;5011373;28;20042;-70
2021/10/01 05:35:43;;;;;;;31.70;9.95;;;;;;;11.40;65.90;101592.59;5011175;28;20041;-70
2021/10/01 05:38:10;;;;;;;18.33;9.60;;;;;;;11.32;66.49;101592.19;5011577;28;20030;-70
2021/10/01 05:40:37;;;;;;;23.15;10.40;;;;;;;11.40;66.42;101592.59;5011372;28;20117;-70
2021/10/01 05:43:03;;;;;;;20.38;10.25;;;;;;;11.26;67.73;101553.09;5011261;28;20480;-69
2021/10/01 05:45:29;;;;;;;24.85;10.45;;;;;;;11.53;67.71;101595.81;5011215;28;20022;-70
2021/10/01 05:47:54;;;;;;;31.08;10.55;;;;;;;11.46;68.26;101595.50;5011067;28;20048;-70
2021/10/01 05:50:22;;;;;;;21.02;8.32;;;;;;;11.66;66.91;101603.38;5010988;28;20412;-70
2021/10/01 05:55:13;;;;;;;14.43;7.22;;;;;;;11.83;65.90;101591.28;5034985;28;20036;-70
2021/10/01 05:57:42;;;;;;;11.20;7.05;;;;;;;11.90;64.94;101597.66;5035030;28;20122;-70
2021/10/01 06:00:08;;;;;;;16.25;7.20;;;;;;;11.91;63.97;101599.44;5000964;28;20049;-70
2021/10/01 06:02:33;;;;;;;17.20;7.15;;;;;;;11.79;63.50;101599.72;5034948;28;20415;-70
2021/10/01 06:04:59;;;;;;;21.67;7.47;;;;;;;11.86;63.50;101598.31;5034439;28;20036;-70
2021/10/01 06:07:24;;;;;;;16.70;7.03;;;;;;;11.94;63.55;101604.78;5034896;28;20403;-70
2021/10/01 06:09:50;;;;;;;15.63;7.05;;;;;;;12.05;64.50;101608.81;5032651;28;20033;-70
2021/10/01 06:12:17;;;;;;;12.50;6.60;;;;;;;12.12;63.28;101607.41;5034508;28;20113;-70
2021/10/01 06:14:43;;;;;;;17.35;6.93;;;;;;;12.05;64.10;101600.16;5034619;28;20032;-69
2021/10/01 06:17:09;;;;;;;11.30;6.18;;;;;;;12.20;63.80;101603.50;5034167;28;20029;-68
2021/10/01 06:19:37;;;;;;;12.77;6.50;;;;;;;12.29;63.82;101603.94;5033742;28;20018;-70
2021/10/01 06:22:04;;;;;;;14.32;6.90;;;;;;;12.28;63.46;101601.28;5034201;28;20400;-69
2021/10/01 06:24:30;;;;;;;24.92;8.15;;;;;;;12.07;63.01;101576.09;5034197;28;20028;-70
2021/10/01 06:26:55;;;;;;;9.68;6.93;;;;;;;11.99;63.04;101559.34;5034574;28;20108;-70
2021/10/01 06:29:21;;;;;;;11.93;6.72;;;;;;;12.39;62.60;101602.66;5034305;28;20131;-70
2021/10/01 06:31:47;;;;;;;21.05;8.00;;;;;;;12.46;62.72;101599.56;5034296;28;20045;-70
2021/10/01 06:34:12;;;;;;;16.85;6.88;;;;;;;12.54;63.08;101599.03;5034037;28;20029;-69
2021/10/01 06:36:38;;;;;;;19.00;6.65;;;;;;;12.70;63.05;101585.97;5034175;28;20021;-69
2021/10/01 06:39:05;;;;;;;8.18;6.00;;;;;;;12.86;61.65;101592.75;5034106;28;20029;-69
2021/10/01 06:41:32;;;;;;;12.23;5.97;;;;;;;13.03;61.23;101579.66;5033838;28;20064;-69
2021/10/01 06:44:00;;;;;;;12.20;6.30;;;;;;;12.93;61.92;101563.72;5033833;28;20025;-70
2021/10/01 06:46:36;;;;;;;16.25;6.57;;;;;;;13.22;61.26;101592.63;5033810;28;20469;-70
2021/10/01 08:21:44;;;;;;;23.65;5.45;;;;;;;17.63;46.55;101563.75;5012467;28;20476;-70
2021/10/01 08:24:10;;;;;;;11.20;3.55;;;;;;;17.45;45.20;101539.78;5010361;28;20100;-69
2021/10/01 08:26:35;;;;;;;9.90;3.83;;;;;;;17.59;46.65;101551.44;5012497;28;20036;-68
2021/10/01 08:29:01;;;;;;;10.35;3.20;;;;;;;17.65;44.88;101535.06;5012351;28;20176;-68
2021/10/01 08:31:27;;;;;;;9.25;2.92;;;;;;;17.72;45.94;101520.41;5010089;28;20400;-69
2021/10/01 08:33:53;;;;;;;8.07;3.22;;;;;;;17.82;45.37;101504.13;5012057;28;20564;-68
2021/10/01 08:36:19;;;;;;;19.77;4.57;;;;;;;17.95;43.46;101510.56;5010956;28;20172;-69
2021/10/01 08:38:45;;;;;;;11.93;4.18;;;;;;;17.89;43.30;101532.13;5011946;28;20026;-69
2021/10/01 08:41:12;;;;;;;19.40;5.82;;;;;;;18.13;43.47;101527.50;5012027;28;20038;-69
2021/10/01 08:43:41;;;;;;;19.05;4.40;;;;;;;18.13;43.68;101533.63;5012356;28;20026;-68
2021/10/01 08:46:07;;;;;;;15.13;4.10;;;;;;;18.36;43.07;101539.34;5012222;28;20045;-69
2021/10/01 08:48:33;;;;;;;10.60;3.78;;;;;;;18.38;42.29;101536.75;5012145;28;20036;-69
2021/10/01 08:51:00;;;;;;;8.30;3.20;;;;;;;18.38;42.37;101506.28;5011964;28;20033;-69
2021/10/01 08:53:26;;;;;;;13.07;3.63;;;;;;;18.65;42.08;101533.84;5012305;28;20506;-69
2021/10/01 08:55:52;;;;;;;22.30;3.97;;;;;;;18.49;42.20;101503.91;5016991;28;20026;-69
2021/10/01 08:58:21;;;;;;;9.75;3.08;;;;;;;18.84;41.13;101534.22;5031867;28;20028;-69
2021/10/01 09:00:50;;;;;;;8.15;2.75;;;;;;;18.78;41.37;101514.06;5029181;28;20032;-70
2021/10/01 09:03:16;;;;;;;10.35;3.10;;;;;;;19.01;41.25;101527.63;5012683;28;20029;-67
2021/10/01 09:05:42;;;;;;;8.43;2.63;;;;;;;19.04;41.01;101487.53;5022212;28;20048;-68
2021/10/01 09:08:19;;;;;;;14.50;3.30;;;;;;;19.31;40.76;101509.84;5031395;28;20029;-68
2021/10/01 09:11:06;;;;;;;8.00;2.67;;;;;;;19.43;40.33;101501.31;5031449;28;20052;-68
2021/10/01 09:13:34;;;;;;;5.95;2.53;;;;;;;19.34;39.55;101513.41;5031420;28;20499;-69
2021/10/01 09:16:05;;;;;;;9.20;3.00;;;;;;;19.03;40.44;101519.81;5014632;28;20077;-69
2021/10/01 09:18:33;;;;;;;7.70;3.25;;;;;;;18.97;41.76;101520.56;5011552;28;20026;-70
2021/10/01 09:21:24;;;;;;;7.75;3.47;;;;;;;18.77;41.12;101491.38;5011839;28;20053;-69
2021/10/01 09:24:05;;;;;;;11.05;2.75;;;;;;;18.68;41.96;101517.34;5011770;28;20022;-69
2021/10/01 09:26:33;;;;;;;12.32;4.22;;;;;;;18.52;42.27;101516.16;5011273;28;20038;-68
2021/10/01 09:29:08;;;;;;;17.05;3.55;;;;;;;18.17;41.76;101511.03;4977249;28;20081;-68
2021/10/01 09:31:42;;;;;;;17.45;4.82;;;;;;;18.25;42.34;101515.56;5011730;28;20053;-69
2021/10/01 09:34:16;;;;;;;19.95;4.25;;;;;;;18.24;41.68;101506.00;5011520;28;20571;-70
2021/10/01 09:36:58;;;;;;;25.73;5.20;;;;;;;18.55;42.45;101500.53;5011534;28;20607;-69
2021/10/01 09:39:30;;;;;;;8.98;2.58;;;;;;;18.66;40.32;101508.59;4994260;28;20030;-69
2021/10/01 09:41:57;;;;;;;9.70;2.97;;;;;;;18.54;39.51;101520.56;5011660;28;20113;-72
2021/10/01 09:44:28;;;;;;;6.63;2.50;;;;;;;18.51;39.41;101524.84;4977478;28;20096;-69
2021/10/01 09:46:54;;;;;;;10.80;3.22;;;;;;;18.33;39.94;101525.31;5011397;28;20025;-73
2021/10/01 09:49:34;;;;;;;21.08;4.75;;;;;;;18.50;39.08;101515.25;5011591;28;20505;-69
2021/10/01 09:52:03;;;;;;;8.07;2.88;;;;;;;18.47;40.10;101504.69;5011312;28;20065;-69
2021/10/01 09:54:30;;;;;;;7.45;2.58;;;;;;;18.40;39.79;101503.69;5011493;28;20519;-69
2021/10/01 09:57:04;;;;;;;8.45;2.60;;;;;;;18.37;39.41;101519.34;5011611;28;20034;-69
2021/10/01 09:59:30;;;;;;;6.70;2.33;;;;;;;18.13;39.50;101470.00;5011203;28;20443;-69
2021/10/01 10:02:00;;;;;;;3.20;2.13;;;;;;;18.25;39.49;101510.34;5011342;28;20033;-69
2021/10/01 10:04:49;;;;;;;8.55;3.03;;;;;;;18.48;38.66;101504.75;5011009;28;20026;-69
2021/10/01 10:07:21;;;;;;;9.88;3.35;;;;;;;18.92;38.88;101506.53;4950946;29;20126;-68
2021/10/01 10:09:53;;;;;;;14.68;4.70;;;;;;;19.20;37.43;101468.66;4950925;29;20502;-70
2021/10/01 10:12:33;;;;;;;26.55;6.13;;;;;;;19.70;37.16;101495.63;4934950;29;20057;-71
2021/10/01 10:15:00;;;;;;;10.93;2.90;;;;;;;19.31;37.52;101491.50;4950716;28;20586;-67
2021/10/01 10:17:28;;;;;;;13.20;3.72;;;;;;;19.27;38.35;101502.81;4954198;28;20031;-70
2021/10/01 10:19:57;;;;;;;7.97;3.20;;;;;;;19.05;37.66;101495.44;4969652;28;20515;-69
2021/10/01 10:22:25;;;;;;;4.22;2.80;;;;;;;18.87;38.00;101456.69;4969700;28;20406;-68
2021/10/01 10:24:51;;;;;;;6.70;3.10;;;;;;;19.10;37.92;101497.25;4969624;28;20042;-67
2021/10/01 10:27:19;;;;;;;6.10;2.80;;;;;;;19.34;37.42;101473.22;4969207;28;20616;-71
2021/10/01 10:29:46;;;;;;;6.43;2.97;;;;;;;19.38;36.70;101454.13;4969516;28;20045;-70
2021/10/01 10:32:15;;;;;;;8.25;3.10;;;;;;;19.20;37.29;101481.75;4969552;28;20047;-69
2021/10/01 10:34:55;;;;;;;9.52;3.28;;;;;;;19.04;37.10;101505.84;4969199;28;20114;-70
2021/10/01 10:37:38;;;;;;;6.88;2.72;;;;;;;18.92;37.01;101488.22;4953365;28;20039;-70
2021/10/01 10:40:06;;;;;;;6.18;2.85;;;;;;;18.99;36.90;101486.56;4973057;28;20030;-69
2021/10/01 10:42:35;;;;;;;6.53;2.97;;;;;;;18.92;37.43;101486.47;4973228;28;20540;-70
2021/10/01 10:45:08;;;;;;;7.75;3.58;;;;;;;19.16;38.00;101482.53;5020614;28;20103;-69
2021/10/01 10:48:00;;;;;;;7.38;2.65;;;;;;;19.18;35.68;101486.06;5033798;28;20404;-70
2021/10/01 10:50:32;;;;;;;10.23;2.90;;;;;;;18.88;37.00;101447.97;5033934;28;20029;-71
2021/10/01 10:53:04;;;;;;;7.82;3.20;;;;;;;18.91;37.69;101479.47;5032660;28;20392;-71
2021/10/01 10:55:32;;;;;;;7.75;4.50;;;;;;;18.68;36.85;101470.25;5016220;28;20028;-70
2021/10/01 10:57:58;;;;;;;7.75;3.90;;;;;;;18.75;37.14;101469.53;5014847;28;20485;-70
2021/10/01 11:00:40;;;;;;;5.68;3.15;;;;;;;19.15;36.56;101479.88;5017041;28;20048;-70
2021/10/01 11:03:19;;;;;;;10.02;3.55;;;;;;;19.50;35.17;101475.25;5012115;28;20492;-72
2021/10/01 11:06:07;;;;;;;12.18;2.85;;;;;;;19.55;35.50;101459.59;5011685;28;20036;-71
2021/10/01 11:08:33;;;;;;;7.85;2.92;;;;;;;19.56;35.36;101467.50;5032885;28;20028;-71
2021/10/01 11:10:59;;;;;;;22.02;5.93;;;;;;;19.37;36.15;101458.44;5032188;28;20059;-71
2021/10/01 11:13:29;;;;;;;6.90;3.15;;;;;;;19.20;35.75;101468.66;5018608;28;20040;-70
2021/10/01 11:16:16;;;;;;;12.02;3.83;;;;;;;19.24;36.49;101460.00;5019826;28;20416;-69
2021/10/01 11:18:47;;;;;;;8.75;3.22;;;;;;;19.19;37.01;101466.88;5025728;28;20040;-71
2021/10/01 11:21:25;;;;;;;25.48;5.47;;;;;;;19.15;36.63;101461.56;5023165;28;20025;-71
2021/10/01 11:24:12;;;;;;;9.63;3.45;;;;;;;19.23;35.69;101450.38;5022427;28;20456;-68
2021/10/01 11:26:52;;;;;;;7.30;2.40;;;;;;;19.71;35.09;101451.16;5012525;28;20034;-70
2021/10/01 11:29:31;;;;;;;10.00;2.17;;;;;;;19.87;34.84;101444.38;5015413;28;20120;-70
2021/10/01 11:32:04;;;;;;;10.73;2.45;;;;;;;19.50;35.05;101438.59;5024831;28;20053;-71
2021/10/01 11:34:46;;;;;;;6.88;2.75;;;;;;;19.27;35.51;101413.78;5033198;28;20057;-72
2021/10/01 11:37:32;;;;;;;4.45;2.00;;;;;;;19.44;33.80;101445.47;5026395;28;20022;-71
2021/10/01 11:40:03;;;;;;;6.53;2.00;;;;;;;19.38;34.90;101413.09;5032642;28;20029;-71
2021/10/01 11:42:39;;;;;;;7.78;2.42;;;;;;;19.56;36.44;101438.69;5015263;28;20033;-70
2021/10/01 11:45:16;;;;;;;18.00;3.20;;;;;;;19.93;34.85;101435.75;5028323;28;20041;-69
2021/10/01 11:48:10;;;;;;;15.07;3.25;;;;;;;19.71;34.25;101439.75;4993902;28;20033;-70
2021/10/01 11:50:42;;;;;;;9.85;3.65;;;;;;;19.25;34.60;101429.44;4970061;28;20114;-71
2021/10/01 11:53:31;;;;;;;6.78;3.22;;;;;;;19.08;35.67;101434.41;4966045;28;20417;-70
2021/10/01 11:56:07;;;;;;;7.83;3.50;;;;;;;19.10;35.81;101430.06;4952522;28;20502;-70
2021/10/01 11:58:34;;;;;;;9.10;4.68;;;;;;;19.24;34.56;101357.91;4969756;28;20034;-67
2021/10/01 12:01:15;;;;;;;13.18;4.57;;;;;;;19.90;34.45;101413.84;4953750;28;20541;-70
2021/10/01 12:04:06;;;;;;;14.05;5.60;;;;;;;20.10;34.39;101424.59;4970346;28;20496;-71
2021/10/01 12:06:36;;;;;;;12.95;4.30;;;;;;;20.08;34.30;101415.84;4894428;29;20029;-70
2021/10/01 12:09:07;;;;;;;14.20;4.70;;;;;;;20.08;34.79;101410.63;4893712;29;20515;-70
2021/10/01 12:11:39;;;;;;;11.23;2.83;;;;;;;19.99;33.63;101408.75;4894026;29;20039;-71
2021/10/01 12:14:09;;;;;;;9.65;2.90;;;;;;;19.96;34.18;101414.84;4894371;29;20041;-69
2021/10/01 12:16:35;;;;;;;;;;;;;;;19.77;34.27;101412.78;4894525;29;20088;-70
2021/10/01 12:19:05;;;;;;;6.88;2.90;;;;;;;19.72;34.35;101399.63;4892059;29;20022;-71
2021/10/01 12:21:32;;;;;;;5.07;2.35;;;;;;;19.82;33.67;101414.59;4891836;29;20045;-69
2021/10/01 12:24:04;;;;;;;11.85;4.43;;;;;;;19.89;32.94;101410.38;4890057;29;20423;-69
2021/10/01 12:26:35;;;;;;;11.65;3.90;;;;;;;20.09;32.05;101410.63;4895408;29;20063;-71
2021/10/01 12:29:20;;;;;;;9.88;4.40;;;;;;;20.07;32.33;101404.47;4951485;29;20070;-70
2021/10/01 12:31:54;;;;;;;11.77;4.45;;;;;;;20.02;33.74;101398.31;4951204;29;20054;-70
2021/10/01 12:34:29;;;;;;;10.27;2.90;;;;;;;20.13;32.67;101401.06;4982970;28;20792;-70
2021/10/01 12:37:05;;;;;;;9.30;3.42;;;;;;;20.09;34.23;101410.63;4951230;29;20119;-69
2021/10/01 12:39:33;;;;;;;8.93;2.67;;;;;;;19.65;34.43;101409.13;4951242;29;20031;-70
2021/10/01 12:42:08;;;;;;;8.10;2.78;;;;;;;19.28;34.36;101390.25;4935307;29;20039;-70
2021/10/01 12:44:38;;;;;;;11.23;2.50;;;;;;;19.39;34.67;101403.50;5031368;28;20025;-68
2021/10/01 12:47:20;;;;;;;5.53;2.65;;;;;;;19.35;34.70;101383.34;5038608;28;20411;-69
2021/10/01 12:50:01;;;;;;;12.63;3.22;;;;;;;19.75;34.54;101386.56;5031533;28;20036;-69
2021/10/01 12:52:29;;;;;;;7.30;3.08;;;;;;;19.88;33.07;101383.25;5031286;28;20029;-70
2021/10/01 12:55:00;;;;;;;5.45;3.25;;;;;;;19.87;32.52;101371.03;5031423;28;20029;-68
2021/10/01 12:57:29;;;;;;;7.60;2.70;;;;;;;20.04;32.13;101388.72;5030957;28;20060;-69
2021/10/01 13:00:16;;;;;;;8.98;2.42;;;;;;;19.84;33.00;101389.34;5031472;28;20055;-69
2021/10/01 13:02:50;;;;;;;6.88;2.63;;;;;;;19.64;33.75;101388.13;5030837;28;20037;-70
2021/10/01 13:05:17;;;;;;;11.45;3.15;;;;;;;19.38;34.70;101388.66;5031143;28;20112;-68
2021/10/01 13:07:47;;;;;;;11.60;3.60;;;;;;;19.46;34.78;101388.75;5031210;28;20092;-70